Windley Key, Florida
Current Conditions -  °F | °C
As of 3:53 PM on Friday 31 Oct 2014 (Local Time) from KMTH Reporting Station
Clear Clear  
Wind Chill: 84°   Ceiling: Unl
Heat Index: 88°   Visibility: 10mi
Dew Point: 70°   Wind: 9mph
Humidity: 63%   Direction: 290°WNW
Pressure: 29.81"   Gusts: 16mph
Location:  24.8649°N, 80.7192°W
Report Text: KMTH 311953Z AUTO 29008G14KT 10SM CLR 29/21 A2981 RMK AO2 SLP095 T02890211
Loading
Personal Weather Stations






























Interactive Weather Map
Tropical Storm Tracking
New forecast layout! Learn more

10-Day Weather Forecast

Advertisements
Track Severe Weather on mobile